Time;durP1;ratioP1;P1;durP2;ratioP2;P2;SDS_P1;SDS_P2;PMS_P1;PMS_P2;Temp;Humidity;BMP_temperature;BMP_pressure;BME280_temperature;BME280_humidity;BME280_pressure;Samples;Min_cycle;Max_cycle;Signal;HPM_P1;HPM_P2
2023/12/05 00:00:09;;;;;;;18.03;11.93;;;3.20;99.90;;;;;;5074551;28;20206;-70
2023/12/05 00:02:34;;;;;;;20.37;10.87;;;3.20;99.90;;;;;;5074430;28;20205;-68
2023/12/05 00:05:00;;;;;;;23.70;12.97;;;3.30;99.90;;;;;;5074657;28;20428;-68
2023/12/05 00:07:25;;;;;;;19.43;13.00;;;3.20;99.90;;;;;;5074722;28;20654;-68
2023/12/05 00:09:51;;;;;;;22.30;13.23;;;3.30;99.90;;;;;;5074436;28;20261;-70
2023/12/05 00:12:17;;;;;;;16.67;12.00;;;3.30;99.90;;;;;;5069630;28;20202;-70
2023/12/05 00:14:42;;;;;;;16.30;11.70;;;3.30;99.90;;;;;;5074351;28;20415;-69
2023/12/05 00:17:08;;;;;;;17.97;11.33;;;3.30;99.90;;;;;;5074269;28;20190;-70
2023/12/05 00:19:33;;;;;;;19.30;12.70;;;3.30;99.90;;;;;;5074220;28;20884;-70
2023/12/05 00:21:59;;;;;;;16.73;9.70;;;3.40;99.90;;;;;;5073626;28;20638;-70
2023/12/05 00:24:24;;;;;;;20.07;12.37;;;3.40;99.90;;;;;;5074199;28;20170;-69
2023/12/05 00:26:50;;;;;;;15.23;10.30;;;3.40;99.90;;;;;;5074276;28;20308;-69
2023/12/05 00:29:16;;;;;;;19.60;10.60;;;3.40;99.90;;;;;;5073986;28;20176;-69
2023/12/05 00:31:42;;;;;;;20.90;12.77;;;3.40;99.90;;;;;;5073872;28;20190;-69
2023/12/05 00:34:07;;;;;;;14.47;10.77;;;3.40;99.90;;;;;;5074188;28;20166;-69
2023/12/05 00:36:33;;;;;;;15.00;12.00;;;3.40;99.90;;;;;;5074086;28;20962;-69
2023/12/05 00:38:58;;;;;;;21.37;11.97;;;3.50;99.90;;;;;;5073729;28;20205;-69
2023/12/05 00:41:25;;;;;;;17.40;11.50;;;3.40;99.90;;;;;;5073902;28;20687;-69
2023/12/05 00:43:51;;;;;;;17.10;11.50;;;3.50;99.90;;;;;;5074055;28;20791;-69
2023/12/05 00:46:17;;;;;;;24.30;12.20;;;3.50;99.90;;;;;;5073837;28;20403;-69
2023/12/05 00:48:43;;;;;;;16.13;11.40;;;3.50;99.90;;;;;;5073751;28;20489;-70
2023/12/05 00:51:08;;;;;;;13.03;10.03;;;3.50;99.90;;;;;;5073681;28;20187;-69
2023/12/05 00:53:34;;;;;;;16.80;12.13;;;3.50;99.90;;;;;;5073677;28;20186;-69
2023/12/05 00:55:59;;;;;;;16.80;10.33;;;3.60;99.90;;;;;;5074030;28;20170;-69
2023/12/05 00:58:25;;;;;;;16.90;11.07;;;3.60;99.90;;;;;;5073459;28;20162;-69
2023/12/05 01:00:50;;;;;;;21.67;12.27;;;3.60;99.90;;;;;;5073577;28;20186;-69
2023/12/05 01:03:16;;;;;;;17.47;11.93;;;3.60;99.90;;;;;;5072928;28;20166;-70
2023/12/05 01:05:42;;;;;;;19.70;11.80;;;3.70;99.90;;;;;;5072347;28;20184;-69
2023/12/05 01:08:07;;;;;;;18.30;11.60;;;3.70;99.90;;;;;;5073132;28;20208;-70
2023/12/05 01:10:33;;;;;;;16.13;11.60;;;3.70;99.90;;;;;;5065117;28;20194;-69
2023/12/05 01:12:58;;;;;;;20.73;11.20;;;3.70;99.90;;;;;;5068446;28;20205;-70
2023/12/05 01:15:24;;;;;;;15.77;11.00;;;3.70;99.90;;;;;;5073134;28;20181;-69
2023/12/05 01:17:50;;;;;;;19.63;11.60;;;3.70;99.90;;;;;;5073183;28;20676;-69
2023/12/05 01:20:16;;;;;;;16.93;10.97;;;3.70;99.90;;;;;;5073164;28;20197;-69
2023/12/05 01:22:41;;;;;;;17.50;11.17;;;3.70;99.90;;;;;;5073096;28;20492;-69
2023/12/05 01:25:07;;;;;;;21.77;12.30;;;3.70;99.90;;;;;;5071953;28;20210;-70
2023/12/05 01:27:33;;;;;;;16.40;11.30;;;3.70;99.90;;;;;;5072880;28;20165;-70
2023/12/05 01:29:59;;;;;;;15.80;11.03;;;3.80;99.90;;;;;;5072750;28;20216;-71
2023/12/05 01:32:24;;;;;;;17.10;12.30;;;3.80;99.90;;;;;;5072836;28;20968;-71
2023/12/05 01:34:50;;;;;;;18.43;10.90;;;3.70;99.90;;;;;;5072262;28;20170;-72
2023/12/05 01:37:15;;;;;;;20.13;11.20;;;3.70;99.90;;;;;;5072660;28;20220;-71
2023/12/05 01:39:41;;;;;;;20.70;11.10;;;3.70;99.90;;;;;;5072708;28;20261;-71
2023/12/05 01:42:06;;;;;;;19.43;11.13;;;3.80;99.90;;;;;;5072720;28;20166;-71
2023/12/05 01:44:32;;;;;;;19.57;11.90;;;3.80;99.90;;;;;;5072730;28;20182;-71
2023/12/05 01:46:58;;;;;;;17.00;11.57;;;3.80;99.90;;;;;;5072812;28;20645;-70
2023/12/05 01:49:24;;;;;;;16.43;11.60;;;3.80;99.90;;;;;;5072560;28;20174;-71
2023/12/05 01:51:52;;;;;;;17.33;12.17;;;3.90;99.90;;;;;;5072507;28;20474;-71
2023/12/05 01:54:18;;;;;;;18.33;11.57;;;3.80;99.90;;;;;;5072459;28;20211;-70
2023/12/05 01:56:43;;;;;;;12.70;9.17;;;3.80;99.90;;;;;;5072396;28;20404;-70
2023/12/05 01:59:10;;;;;;;17.30;10.27;;;3.80;99.90;;;;;;5072379;28;20440;-70
2023/12/05 02:01:36;;;;;;;19.90;10.77;;;3.90;99.90;;;;;;5071024;28;20186;-70
2023/12/05 02:04:02;;;;;;;19.23;9.97;;;3.80;99.90;;;;;;5072380;28;20403;-70
2023/12/05 02:06:28;;;;;;;11.60;9.40;;;3.90;99.90;;;;;;5072305;28;20887;-70
2023/12/05 02:08:54;;;;;;;19.53;11.00;;;3.90;99.90;;;;;;5072198;28;20958;-70
2023/12/05 02:11:19;;;;;;;14.87;9.20;;;3.90;99.90;;;;;;5071988;28;20247;-70
2023/12/05 02:13:47;;;;;;;13.70;10.60;;;4.00;99.90;;;;;;5069659;28;20584;-70
2023/12/05 02:16:26;;;;;;;16.50;9.80;;;3.90;99.90;;;;;;5070843;28;20193;-70
2023/12/05 02:19:12;;;;;;;19.20;11.47;;;3.90;99.90;;;;;;5071677;28;20524;-70
2023/12/05 02:21:40;;;;;;;20.33;10.67;;;3.90;99.90;;;;;;5070801;28;20428;-70
2023/12/05 02:24:20;;;;;;;17.53;10.07;;;4.00;99.90;;;;;;5072193;28;20397;-70
2023/12/05 02:27:12;;;;;;;15.87;10.40;;;3.90;99.90;;;;;;5072297;28;20392;-70
2023/12/05 02:29:51;;;;;;;14.90;9.30;;;3.90;99.90;;;;;;5071914;28;20412;-70
2023/12/05 02:32:17;;;;;;;22.20;9.23;;;4.00;99.90;;;;;;5072000;28;20416;-70
2023/12/05 02:34:43;;;;;;;15.03;9.67;;;4.00;99.90;;;;;;5072163;28;20408;-69
2023/12/05 02:37:18;;;;;;;15.40;11.10;;;4.10;99.90;;;;;;5071991;28;20909;-69
2023/12/05 02:40:04;;;;;;;12.03;8.50;;;4.00;99.90;;;;;;5071365;28;20467;-69
2023/12/05 02:42:31;;;;;;;14.37;9.73;;;4.00;99.90;;;;;;5070741;28;20409;-70
2023/12/05 02:45:00;;;;;;;16.93;9.70;;;4.00;99.90;;;;;;5071994;28;20412;-70
2023/12/05 02:47:29;;;;;;;14.17;10.17;;;4.10;99.90;;;;;;5071962;28;20619;-69
2023/12/05 02:49:55;;;;;;;17.30;10.40;;;4.00;99.90;;;;;;5071671;28;20417;-69
2023/12/05 02:52:21;;;;;;;10.80;8.67;;;4.10;99.90;;;;;;5071840;28;20414;-70
2023/12/05 02:54:46;;;;;;;16.20;10.37;;;4.10;99.90;;;;;;5071879;28;20489;-69
2023/12/05 02:57:12;;;;;;;14.40;10.07;;;4.10;99.90;;;;;;5071747;28;20166;-69
2023/12/05 02:59:37;;;;;;;14.77;9.73;;;4.10;99.90;;;;;;5071749;28;20202;-70
2023/12/05 03:02:03;;;;;;;15.07;9.93;;;4.20;99.90;;;;;;5071602;28;20167;-70
2023/12/05 03:04:30;;;;;;;14.70;9.90;;;4.20;99.90;;;;;;5071837;28;20169;-70
2023/12/05 03:06:55;;;;;;;14.13;8.83;;;4.20;99.90;;;;;;5071757;28;20634;-70
2023/12/05 03:09:21;;;;;;;16.20;10.80;;;4.20;99.90;;;;;;5071596;28;20412;-70
2023/12/05 03:11:46;;;;;;;15.13;9.33;;;4.30;99.90;;;;;;5068921;28;20197;-70
2023/12/05 03:14:13;;;;;;;17.07;10.33;;;4.40;99.90;;;;;;5065533;28;20178;-69
2023/12/05 03:16:39;;;;;;;13.30;10.60;;;4.30;99.90;;;;;;5071560;28;20629;-69
2023/12/05 03:19:04;;;;;;;14.17;8.87;;;4.40;99.90;;;;;;5071133;28;20459;-70
2023/12/05 03:21:30;;;;;;;18.90;9.97;;;4.40;99.90;;;;;;5070102;28;20277;-70
2023/12/05 03:23:55;;;;;;;15.00;10.80;;;4.30;99.90;;;;;;5070352;28;20227;-69
2023/12/05 03:26:22;;;;;;;14.03;10.20;;;4.30;99.90;;;;;;5071721;28;20226;-70
2023/12/05 03:28:48;;;;;;;16.10;10.80;;;4.30;99.90;;;;;;5071362;28;20180;-70
2023/12/05 03:31:14;;;;;;;16.57;10.47;;;4.40;99.90;;;;;;5071288;28;20454;-69
2023/12/05 03:33:40;;;;;;;14.30;11.07;;;4.40;99.90;;;;;;5071543;28;20495;-70
2023/12/05 03:36:06;;;;;;;15.63;10.00;;;4.40;99.90;;;;;;5071464;28;20175;-70
2023/12/05 03:38:31;;;;;;;14.07;10.30;;;4.40;99.90;;;;;;5071159;28;20179;-70
2023/12/05 03:40:57;;;;;;;16.07;11.03;;;4.40;99.90;;;;;;5071324;28;20529;-70
2023/12/05 03:43:23;;;;;;;16.10;10.40;;;4.40;99.90;;;;;;5071323;28;20188;-69
2023/12/05 03:45:48;;;;;;;16.40;10.30;;;4.40;99.90;;;;;;5071373;28;20179;-70
2023/12/05 03:48:14;;;;;;;13.57;10.00;;;4.50;99.90;;;;;;5071113;28;20171;-69
2023/12/05 03:50:39;;;;;;;19.80;10.10;;;4.40;99.90;;;;;;5071202;28;20201;-70
2023/12/05 03:53:05;;;;;;;14.10;10.10;;;4.50;99.90;;;;;;5071133;28;20171;-69
2023/12/05 03:55:33;;;;;;;13.10;8.90;;;4.50;99.90;;;;;;5071173;28;20181;-70
2023/12/05 03:57:59;;;;;;;13.97;9.43;;;4.50;99.90;;;;;;5073826;28;20564;-70
2023/12/05 04:00:25;;;;;;;13.70;9.40;;;4.50;99.90;;;;;;5073433;28;20471;-70
2023/12/05 04:02:50;;;;;;;15.00;9.07;;;4.50;99.90;;;;;;5074588;28;20208;-70
2023/12/05 04:05:16;;;;;;;19.03;9.83;;;4.50;99.90;;;;;;5074779;28;20807;-70
2023/12/05 04:07:41;;;;;;;14.97;10.07;;;4.50;99.90;;;;;;5074552;28;20242;-70
2023/12/05 04:10:11;;;;;;;13.47;9.33;;;4.50;99.90;;;;;;5074656;28;20189;-70
2023/12/05 04:12:39;;;;;;;14.07;9.57;;;4.50;99.90;;;;;;5069050;28;20185;-70
2023/12/05 04:15:05;;;;;;;18.00;9.43;;;4.50;99.90;;;;;;5074612;28;20408;-69
2023/12/05 04:17:31;;;;;;;13.50;8.53;;;4.50;99.90;;;;;;5074300;28;20891;-70
2023/12/05 04:19:57;;;;;;;13.67;8.80;;;4.50;99.90;;;;;;5072942;28;20460;-70
2023/12/05 04:22:22;;;;;;;13.17;8.73;;;4.50;99.90;;;;;;5074106;28;20706;-69
2023/12/05 04:24:48;;;;;;;12.13;8.53;;;4.50;99.90;;;;;;5074507;28;20166;-70
2023/12/05 04:27:13;;;;;;;15.73;8.23;;;4.60;99.90;;;;;;5074081;28;20174;-70
2023/12/05 04:29:39;;;;;;;11.70;9.43;;;4.60;99.90;;;;;;5072842;28;20304;-70
2023/12/05 04:32:06;;;;;;;15.10;9.60;;;4.60;99.90;;;;;;5074115;28;20170;-70
2023/12/05 04:34:32;;;;;;;14.67;8.90;;;4.60;99.90;;;;;;5074326;28;20570;-70
2023/12/05 04:36:57;;;;;;;12.40;8.03;;;4.60;99.90;;;;;;5072837;28;20519;-70
2023/12/05 04:39:23;;;;;;;15.00;9.10;;;4.60;99.90;;;;;;5073959;28;20198;-70
2023/12/05 04:41:48;;;;;;;15.83;9.10;;;4.60;99.90;;;;;;5073990;28;20610;-70
2023/12/05 04:44:14;;;;;;;16.13;9.43;;;4.70;99.90;;;;;;5072938;28;20170;-71
2023/12/05 04:46:40;;;;;;;12.37;8.00;;;4.70;99.90;;;;;;5074076;28;20625;-70
2023/12/05 04:49:06;;;;;;;14.20;8.20;;;4.70;99.90;;;;;;5073911;28;20499;-70
2023/12/05 04:51:32;;;;;;;14.53;8.50;;;4.70;99.90;;;;;;5073744;28;20186;-70
2023/12/05 04:53:58;;;;;;;12.57;9.30;;;4.80;99.90;;;;;;5074133;28;20182;-70
2023/12/05 04:56:23;;;;;;;14.03;8.30;;;4.80;99.90;;;;;;5074012;28;20439;-70
2023/12/05 04:58:49;;;;;;;13.37;8.07;;;4.80;99.90;;;;;;5073471;28;20541;-70
2023/12/05 05:01:14;;;;;;;17.97;8.70;;;4.80;99.90;;;;;;5073706;28;20261;-70
2023/12/05 05:03:40;;;;;;;13.13;8.60;;;4.80;99.90;;;;;;5072344;28;20173;-70
2023/12/05 05:06:06;;;;;;;13.73;8.63;;;4.80;99.90;;;;;;5073664;28;20576;-70
2023/12/05 05:08:31;;;;;;;13.23;8.00;;;4.90;99.90;;;;;;5072243;28;20170;-70
2023/12/05 05:10:57;;;;;;;14.87;9.07;;;4.80;99.90;;;;;;5073364;28;20198;-70
2023/12/05 05:13:22;;;;;;;12.00;8.13;;;4.90;99.90;;;;;;5067907;28;20189;-70
2023/12/05 05:15:48;;;;;;;13.47;8.40;;;4.90;99.90;;;;;;5073414;28;20660;-69
2023/12/05 05:18:13;;;;;;;12.23;8.30;;;4.80;99.90;;;;;;5066287;28;20171;-69
2023/12/05 05:20:39;;;;;;;21.70;9.80;;;4.90;99.90;;;;;;5071731;28;20655;-69
2023/12/05 05:23:05;;;;;;;14.60;8.80;;;4.90;99.90;;;;;;5073208;28;20201;-70
2023/12/05 05:25:30;;;;;;;11.90;8.73;;;4.90;99.90;;;;;;5073439;28;20245;-69
2023/12/05 05:27:56;;;;;;;17.40;9.87;;;4.90;99.90;;;;;;5073155;28;20174;-70
2023/12/05 05:30:21;;;;;;;13.03;8.00;;;4.90;99.90;;;;;;5073388;28;20257;-70
2023/12/05 05:32:47;;;;;;;15.33;9.00;;;5.00;99.90;;;;;;5072902;28;20166;-69
2023/12/05 05:35:12;;;;;;;13.80;9.10;;;5.00;99.90;;;;;;5072928;28;20174;-70
2023/12/05 05:37:38;;;;;;;11.53;7.97;;;5.10;99.90;;;;;;5072913;28;20170;-70
2023/12/05 05:40:06;;;;;;;12.70;8.13;;;5.10;99.90;;;;;;5072613;28;20236;-70
2023/12/05 05:42:32;;;;;;;14.30;7.93;;;5.10;99.90;;;;;;5072920;28;20162;-69
2023/12/05 05:44:57;;;;;;;12.13;8.20;;;5.10;99.90;;;;;;5071480;28;20401;-69
2023/12/05 05:47:23;;;;;;;13.00;7.80;;;5.10;99.90;;;;;;5072597;28;20166;-69
2023/12/05 05:49:48;;;;;;;13.23;8.53;;;5.20;99.90;;;;;;5072731;28;20169;-69
2023/12/05 05:52:14;;;;;;;15.87;8.70;;;5.20;99.90;;;;;;5071115;28;20220;-69
2023/12/05 05:54:39;;;;;;;11.90;7.90;;;5.20;99.90;;;;;;5072603;28;20186;-69
2023/12/05 05:57:05;;;;;;;16.23;8.03;;;5.30;99.90;;;;;;5071084;28;20170;-70
2023/12/05 05:59:30;;;;;;;16.40;9.17;;;5.30;99.90;;;;;;5072337;28;20190;-70
2023/12/05 06:01:56;;;;;;;10.77;7.37;;;5.30;99.90;;;;;;5072279;28;20194;-70
2023/12/05 06:04:21;;;;;;;11.37;7.80;;;5.30;99.90;;;;;;5072394;28;20257;-70
2023/12/05 06:06:47;;;;;;;13.87;7.40;;;5.30;99.90;;;;;;5072352;28;20193;-70
2023/12/05 06:09:12;;;;;;;10.50;6.83;;;5.30;99.90;;;;;;5072063;28;20170;-70
2023/12/05 06:11:38;;;;;;;10.03;6.67;;;5.30;99.90;;;;;;5072205;28;20190;-70
2023/12/05 06:14:04;;;;;;;15.00;8.90;;;5.30;99.90;;;;;;5061240;28;20201;-70
2023/12/05 06:16:29;;;;;;;13.60;8.03;;;5.30;99.90;;;;;;5066818;28;20425;-69
2023/12/05 06:18:55;;;;;;;14.83;8.27;;;5.40;99.90;;;;;;5063252;28;20198;-70
2023/12/05 06:21:20;;;;;;;14.13;7.33;;;5.40;99.90;;;;;;5071731;28;20182;-69
2023/12/05 06:23:46;;;;;;;13.30;8.13;;;5.40;99.90;;;;;;5072073;28;20162;-70
2023/12/05 06:26:12;;;;;;;14.97;7.87;;;5.40;99.90;;;;;;5072172;28;20531;-70
2023/12/05 06:28:38;;;;;;;12.20;6.90;;;5.50;99.90;;;;;;5071799;28;20659;-70
2023/12/05 06:31:03;;;;;;;10.37;7.53;;;5.50;99.90;;;;;;5071812;28;20424;-70
2023/12/05 06:33:29;;;;;;;10.53;7.20;;;5.50;99.90;;;;;;5072012;28;20249;-70
2023/12/05 06:35:54;;;;;;;11.13;7.93;;;5.60;99.90;;;;;;5072040;28;20162;-70
2023/12/05 06:38:20;;;;;;;8.97;6.33;;;5.60;99.90;;;;;;5071645;28;20625;-70
2023/12/05 06:40:45;;;;;;;8.73;6.20;;;5.60;99.90;;;;;;5071810;28;20686;-70
2023/12/05 06:43:11;;;;;;;8.63;6.10;;;5.70;99.90;;;;;;5071701;28;20170;-70
2023/12/05 06:45:37;;;;;;;8.27;5.90;;;5.70;99.90;;;;;;5071870;28;20166;-70
2023/12/05 06:48:02;;;;;;;10.37;5.80;;;5.70;99.90;;;;;;5071644;28;20223;-70
2023/12/05 06:50:28;;;;;;;9.17;6.30;;;5.70;99.90;;;;;;5071664;28;20200;-70
2023/12/05 06:52:57;;;;;;;9.20;5.70;;;5.70;99.90;;;;;;5051701;28;20159;-70
2023/12/05 06:55:23;;;;;;;8.60;5.67;;;5.60;99.90;;;;;;5051699;28;20179;-70
2023/12/05 06:57:49;;;;;;;8.80;5.60;;;5.60;99.90;;;;;;5051475;28;20463;-71
2023/12/05 07:00:15;;;;;;;8.33;6.00;;;5.60;99.90;;;;;;5051464;28;20461;-70
2023/12/05 07:02:41;;;;;;;8.03;5.87;;;5.70;99.90;;;;;;5051606;28;20171;-70
2023/12/05 07:05:08;;;;;;;8.13;5.47;;;5.70;99.90;;;;;;5051641;28;20413;-70
2023/12/05 07:07:34;;;;;;;11.27;6.57;;;5.70;99.90;;;;;;5051362;28;20167;-70
2023/12/05 07:10:00;;;;;;;8.20;5.90;;;5.70;99.90;;;;;;5051105;28;20449;-70
2023/12/05 07:12:25;;;;;;;7.07;4.63;;;5.70;99.90;;;;;;5051741;28;20425;-71
2023/12/05 07:14:51;;;;;;;9.90;5.80;;;5.70;99.90;;;;;;5064151;28;20676;-71
2023/12/05 07:17:18;;;;;;;10.80;5.60;;;5.80;99.90;;;;;;5071149;28;20522;-70
2023/12/05 07:19:43;;;;;;;8.07;5.67;;;5.80;99.90;;;;;;5071206;28;20198;-71
2023/12/05 07:22:09;;;;;;;10.00;6.80;;;5.80;99.90;;;;;;5071336;28;20927;-70
2023/12/05 07:24:35;;;;;;;6.83;5.40;;;5.80;99.90;;;;;;5071551;28;20245;-71
2023/12/05 07:27:00;;;;;;;7.10;5.40;;;5.90;99.90;;;;;;5060613;28;20421;-70
2023/12/05 07:29:26;;;;;;;9.37;5.80;;;5.80;99.90;;;;;;5071016;28;20651;-71
2023/12/05 07:31:52;;;;;;;10.47;5.00;;;5.90;99.90;;;;;;5072306;28;20194;-70
2023/12/05 07:34:17;;;;;;;8.37;5.50;;;6.00;99.90;;;;;;5075167;28;20277;-71
2023/12/05 07:36:42;;;;;;;10.07;5.73;;;6.10;99.90;;;;;;5075224;28;20240;-70
2023/12/05 07:39:12;;;;;;;14.87;6.33;;;6.10;99.90;;;;;;5074836;28;20703;-70
2023/12/05 07:41:39;;;;;;;11.43;5.60;;;6.10;99.90;;;;;;5074725;28;20217;-71
2023/12/05 07:44:06;;;;;;;9.10;6.33;;;6.10;99.90;;;;;;5074799;28;20466;-70
2023/12/05 07:46:32;;;;;;;8.90;6.03;;;6.20;99.90;;;;;;5075021;28;20497;-70
2023/12/05 07:48:58;;;;;;;12.30;6.17;;;6.30;99.90;;;;;;5074807;28;21063;-70
2023/12/05 07:51:23;;;;;;;9.00;5.83;;;6.40;99.90;;;;;;5074877;28;20439;-71
2023/12/05 07:53:53;;;;;;;8.47;5.83;;;6.50;99.90;;;;;;5074728;28;20186;-70
2023/12/05 07:56:18;;;;;;;11.47;5.70;;;6.50;99.90;;;;;;5074842;28;20169;-71
2023/12/05 07:58:44;;;;;;;9.23;5.83;;;6.50;99.90;;;;;;5074558;28;20463;-71
2023/12/05 08:01:09;;;;;;;7.63;5.60;;;6.60;99.90;;;;;;5074656;28;20187;-70
2023/12/05 08:03:35;;;;;;;8.33;5.13;;;6.60;99.90;;;;;;5074673;28;20261;-71
2023/12/05 08:06:01;;;;;;;6.70;5.13;;;6.60;99.90;;;;;;5074638;28;20162;-71
2023/12/05 08:08:30;;;;;;;7.60;4.93;;;6.60;99.90;;;;;;5074384;28;20158;-71
2023/12/05 08:10:59;;;;;;;7.83;5.30;;;6.60;99.90;;;;;;5074435;28;20420;-71
2023/12/05 08:13:25;;;;;;;9.90;5.80;;;6.70;99.90;;;;;;5071554;28;20413;-71
2023/12/05 08:15:50;;;;;;;7.10;5.27;;;6.70;99.90;;;;;;5070285;28;20930;-70
2023/12/05 08:18:16;;;;;;;6.17;4.90;;;6.70;99.90;;;;;;5074047;28;20438;-71
2023/12/05 08:20:41;;;;;;;6.90;5.30;;;6.70;99.90;;;;;;5074197;28;20456;-71
2023/12/05 08:23:07;;;;;;;7.93;5.20;;;6.80;99.90;;;;;;5074225;28;20648;-71
2023/12/05 08:25:32;;;;;;;5.80;4.33;;;6.90;99.90;;;;;;5074318;28;20159;-71
2023/12/05 08:27:58;;;;;;;6.67;5.07;;;6.90;99.90;;;;;;5074080;28;20162;-71
2023/12/05 08:30:23;;;;;;;8.23;4.90;;;6.90;99.90;;;;;;5073999;28;20240;-71
2023/12/05 08:32:49;;;;;;;6.90;4.40;;;7.00;99.90;;;;;;5072453;28;20193;-71
2023/12/05 08:35:15;;;;;;;6.20;4.40;;;7.10;99.90;;;;;;5074034;28;20182;-71
2023/12/05 08:37:41;;;;;;;9.40;5.10;;;7.30;99.90;;;;;;5073927;28;20216;-71
2023/12/05 08:40:08;;;;;;;11.87;4.93;;;7.30;99.90;;;;;;5073913;28;20484;-71
2023/12/05 08:42:33;;;;;;;5.23;4.57;;;7.30;99.90;;;;;;5073812;28;20158;-72
2023/12/05 08:45:00;;;;;;;4.30;3.90;;;7.40;99.90;;;;;;5074037;28;21031;-72
2023/12/05 08:47:26;;;;;;;5.67;3.93;;;7.40;99.90;;;;;;5073733;28;20187;-71
2023/12/05 08:49:51;;;;;;;6.10;4.03;;;7.50;99.90;;;;;;5072542;28;20527;-71
2023/12/05 08:52:19;;;;;;;3.57;3.20;;;7.60;99.90;;;;;;5073711;28;21033;-71
2023/12/05 08:54:44;;;;;;;12.47;4.30;;;7.50;99.90;;;;;;5073613;28;20549;-71
2023/12/05 08:57:10;;;;;;;4.83;3.80;;;7.70;99.90;;;;;;5073517;28;20428;-71
2023/12/05 08:59:35;;;;;;;5.30;4.10;;;7.80;99.90;;;;;;5073514;28;20215;-71
2023/12/05 09:02:01;;;;;;;8.13;4.10;;;7.80;99.90;;;;;;5069667;28;20183;-70
2023/12/05 09:04:26;;;;;;;4.77;3.47;;;7.80;99.90;;;;;;5061198;28;20223;-70
2023/12/05 09:06:52;;;;;;;4.40;2.90;;;7.90;99.90;;;;;;5073298;28;20641;-70
2023/12/05 09:09:17;;;;;;;4.53;2.03;;;8.00;99.90;;;;;;5073215;28;20193;-71
2023/12/05 09:11:44;;;;;;;4.57;1.80;;;8.00;99.90;;;;;;5073179;28;20200;-71
2023/12/05 09:14:10;;;;;;;2.37;1.40;;;8.00;99.90;;;;;;5063512;28;20215;-71
2023/12/05 09:16:35;;;;;;;12.57;1.50;;;8.20;99.90;;;;;;5073259;28;20420;-70
2023/12/05 09:19:01;;;;;;;5.90;1.83;;;8.20;99.90;;;;;;5073053;28;20202;-71
2023/12/05 09:21:26;;;;;;;3.70;1.87;;;8.20;99.90;;;;;;5072815;28;20272;-71
2023/12/05 09:23:52;;;;;;;7.10;2.53;;;8.20;99.90;;;;;;5069432;28;20186;-71
2023/12/05 09:26:18;;;;;;;4.07;2.43;;;8.30;99.90;;;;;;5071739;28;20189;-70
2023/12/05 09:28:44;;;;;;;10.43;2.77;;;8.30;99.90;;;;;;5073082;28;20300;-70
2023/12/05 09:31:10;;;;;;;8.43;2.30;;;8.30;99.90;;;;;;5072778;28;20439;-71
2023/12/05 09:33:36;;;;;;;3.60;2.00;;;8.40;99.90;;;;;;5068255;28;20428;-73
2023/12/05 09:36:03;;;;;;;2.07;1.77;;;8.50;99.90;;;;;;5063815;28;20559;-71
2023/12/05 09:38:28;;;;;;;6.70;2.37;;;8.40;99.90;;;;;;5072463;28;20178;-71
2023/12/05 09:40:56;;;;;;;3.47;1.70;;;8.50;99.90;;;;;;5072631;28;20428;-71
2023/12/05 09:43:24;;;;;;;3.07;1.40;;;8.40;99.90;;;;;;5075514;28;20162;-71
2023/12/05 09:45:59;;;;;;;2.70;1.07;;;8.50;99.90;;;;;;5093007;28;20407;-72
2023/12/05 09:48:28;;;;;;;1.43;1.07;;;8.50;99.90;;;;;;5089464;28;20404;-71
2023/12/05 09:50:55;;;;;;;1.20;0.97;;;8.60;99.90;;;;;;5072578;28;20432;-72
2023/12/05 09:53:23;;;;;;;1.20;0.80;;;8.70;99.90;;;;;;5069854;28;20409;-71
2023/12/05 09:55:49;;;;;;;1.30;0.77;;;8.70;99.90;;;;;;5072154;28;20507;-71
2023/12/05 09:58:15;;;;;;;1.27;0.80;;;8.70;99.90;;;;;;5071994;28;20419;-71
2023/12/05 10:00:42;;;;;;;1.10;0.83;;;8.70;99.90;;;;;;5072413;28;20456;-71
2023/12/05 10:03:09;;;;;;;0.90;0.60;;;8.70;99.90;;;;;;5072390;28;20162;-71
2023/12/05 10:05:40;;;;;;;0.90;0.60;;;8.70;99.90;;;;;;5072359;28;20777;-71
2023/12/05 10:08:06;;;;;;;1.10;0.90;;;8.70;99.90;;;;;;5070982;28;20434;-71
2023/12/05 10:10:33;;;;;;;1.43;1.00;;;8.70;99.90;;;;;;5072272;28;20519;-71
2023/12/05 10:13:01;;;;;;;2.60;0.80;;;8.60;99.90;;;;;;5068891;28;20420;-71
2023/12/05 10:15:26;;;;;;;1.30;1.13;;;8.70;99.90;;;;;;5067068;28;20436;-71
2023/12/05 10:17:53;;;;;;;0.93;0.70;;;8.70;99.90;;;;;;5070451;28;20862;-71
2023/12/05 10:20:18;;;;;;;1.77;1.07;;;8.70;99.90;;;;;;5071904;28;20202;-71
2023/12/05 10:22:44;;;;;;;1.63;1.27;;;8.70;99.90;;;;;;5070411;28;21099;-71
2023/12/05 10:25:11;;;;;;;2.60;0.93;;;8.70;99.90;;;;;;5072185;28;20167;-70
2023/12/05 10:27:36;;;;;;;1.53;0.80;;;8.70;99.90;;;;;;5071948;28;20174;-71
2023/12/05 10:30:02;;;;;;;1.40;1.07;;;8.70;99.90;;;;;;5071895;28;20779;-71
2023/12/05 10:32:28;;;;;;;1.07;0.73;;;8.70;99.90;;;;;;5071907;28;20166;-70
2023/12/05 10:34:56;;;;;;;1.27;0.90;;;8.70;99.90;;;;;;5071868;28;20783;-70
2023/12/05 10:37:23;;;;;;;2.50;1.10;;;8.80;99.90;;;;;;5071797;28;20249;-71
2023/12/05 10:39:53;;;;;;;1.53;0.90;;;8.70;99.90;;;;;;5071761;28;20540;-71
2023/12/05 10:42:20;;;;;;;1.30;0.80;;;8.80;99.90;;;;;;5072006;28;20396;-71
2023/12/05 10:44:46;;;;;;;1.40;0.80;;;8.90;99.90;;;;;;5071863;28;20401;-72
2023/12/05 10:47:13;;;;;;;1.10;1.00;;;8.90;99.90;;;;;;5071404;28;20412;-71
2023/12/05 10:49:42;;;;;;;1.80;0.80;;;9.00;99.90;;;;;;5070385;28;20768;-71
2023/12/05 10:52:08;;;;;;;1.37;0.83;;;8.80;99.90;;;;;;5069492;28;20527;-71
2023/12/05 10:54:34;;;;;;;2.30;0.90;;;8.90;99.90;;;;;;5071319;28;20424;-71
2023/12/05 10:57:00;;;;;;;1.47;1.27;;;8.90;99.90;;;;;;5071716;28;20826;-71
2023/12/05 10:59:31;;;;;;;2.70;1.00;;;9.00;99.90;;;;;;5071459;28;20200;-70
2023/12/05 11:01:58;;;;;;;1.73;1.23;;;9.00;99.90;;;;;;5071491;28;20412;-70
2023/12/05 11:04:25;;;;;;;1.47;0.80;;;9.00;99.90;;;;;;5071629;28;20761;-71
2023/12/05 11:06:52;;;;;;;3.00;0.90;;;8.90;99.90;;;;;;5073429;28;20404;-70
2023/12/05 11:09:18;;;;;;;4.73;1.37;;;8.90;99.90;;;;;;5075539;28;20401;-71
2023/12/05 11:11:47;;;;;;;1.97;0.90;;;8.90;99.90;;;;;;5075745;28;20456;-70
2023/12/05 11:14:15;;;;;;;2.97;1.00;;;8.80;99.90;;;;;;5075761;28;20404;-70
2023/12/05 11:16:49;;;;;;;1.60;0.83;;;8.90;99.90;;;;;;5075679;28;20876;-70
2023/12/05 11:19:38;;;;;;;2.03;1.53;;;8.90;99.90;;;;;;5075542;28;20826;-70
2023/12/05 11:22:44;;;;;;;3.47;1.00;;;8.80;99.90;;;;;;5075641;28;20403;-70
2023/12/05 11:25:32;;;;;;;1.63;1.10;;;8.70;99.90;;;;;;5044476;28;20942;-70
2023/12/05 11:28:26;;;;;;;3.37;1.07;;;8.80;99.90;;;;;;5075193;28;20407;-70
2023/12/05 11:31:01;;;;;;;0.90;0.70;;;8.80;99.90;;;;;;5073890;28;20436;-70
2023/12/05 11:34:11;;;;;;;1.57;0.90;;;8.70;99.90;;;;;;5075173;28;20449;-70
2023/12/05 11:36:41;;;;;;;1.63;0.80;;;8.80;99.90;;;;;;5059337;28;20554;-70
2023/12/05 11:39:08;;;;;;;1.10;1.00;;;8.70;99.90;;;;;;5074792;28;20447;-70
2023/12/05 11:41:33;;;;;;;1.67;1.13;;;8.70;99.90;;;;;;5074973;28;20423;-70
2023/12/05 11:44:11;;;;;;;2.20;0.80;;;8.80;99.90;;;;;;5073672;28;20413;-70
2023/12/05 11:46:37;;;;;;;1.23;0.77;;;8.70;99.90;;;;;;5074958;28;20194;-71
2023/12/05 11:49:03;;;;;;;0.77;0.63;;;8.80;99.90;;;;;;5074703;28;20461;-70
2023/12/05 11:51:32;;;;;;;1.40;1.10;;;8.70;99.90;;;;;;5074715;28;20193;-71
2023/12/05 11:54:01;;;;;;;1.33;0.80;;;8.80;99.90;;;;;;5075104;28;20420;-70
2023/12/05 11:56:30;;;;;;;0.90;0.70;;;8.70;99.90;;;;;;5074363;28;20408;-70
2023/12/05 11:59:23;;;;;;;1.90;0.80;;;8.70;99.90;;;;;;5073348;28;20455;-70
2023/12/05 12:01:49;;;;;;;1.10;1.00;;;8.70;99.90;;;;;;5068351;28;20444;-71
2023/12/05 12:04:19;;;;;;;1.30;0.97;;;8.80;99.90;;;;;;5074702;28;20458;-71
2023/12/05 12:06:46;;;;;;;1.27;0.90;;;8.90;99.90;;;;;;5074737;28;20188;-70
2023/12/05 12:09:12;;;;;;;1.00;0.80;;;8.90;99.90;;;;;;5074504;28;20834;-71
2023/12/05 12:11:38;;;;;;;1.10;0.90;;;8.80;99.90;;;;;;5074451;28;20460;-71
2023/12/05 12:14:18;;;;;;;1.43;0.60;;;8.80;99.90;;;;;;5073249;28;20557;-70
2023/12/05 12:16:45;;;;;;;0.90;0.73;;;8.80;99.90;;;;;;5074291;28;20408;-71
2023/12/05 12:19:15;;;;;;;1.20;0.80;;;8.80;99.90;;;;;;5073762;28;20916;-70
2023/12/05 12:21:45;;;;;;;1.00;0.77;;;8.80;99.90;;;;;;5073092;28;20424;-70
2023/12/05 12:24:21;;;;;;;1.33;1.23;;;8.90;99.90;;;;;;5074429;28;20409;-70
2023/12/05 12:26:57;;;;;;;1.17;0.90;;;9.00;99.90;;;;;;5074401;28;20465;-70
2023/12/05 12:29:24;;;;;;;1.67;0.90;;;9.10;99.90;;;;;;5072752;28;20419;-70
2023/12/05 12:31:52;;;;;;;1.40;0.73;;;9.00;99.90;;;;;;5074257;28;20457;-70
2023/12/05 12:34:27;;;;;;;1.10;1.00;;;9.10;99.90;;;;;;5074166;28;20408;-70
2023/12/05 12:36:54;;;;;;;2.03;0.80;;;9.10;99.90;;;;;;5074203;28;20451;-70
2023/12/05 12:39:20;;;;;;;1.00;0.90;;;9.00;99.90;;;;;;5073829;28;20913;-70
2023/12/05 12:41:46;;;;;;;1.27;0.90;;;8.90;99.90;;;;;;5073846;28;20428;-70
2023/12/05 12:44:19;;;;;;;1.80;1.30;;;8.80;99.90;;;;;;5074009;28;20432;-70
2023/12/05 12:46:45;;;;;;;1.53;1.13;;;8.70;99.90;;;;;;5073996;28;20439;-70